sensor_id;sensor_type;location;lat;lon;timestamp;P1;durP1;ratioP1;P2;durP2;ratioP2
13085;SDS011;6609;49.882;8.664;2023-07-02T00:01:35;4.60;;;2.37;;
13085;SDS011;6609;49.882;8.664;2023-07-02T00:04:03;4.07;;;2.10;;
13085;SDS011;6609;49.882;8.664;2023-07-02T00:06:33;3.53;;;2.33;;
13085;SDS011;6609;49.882;8.664;2023-07-02T00:09:05;3.10;;;2.17;;
13085;SDS011;6609;49.882;8.664;2023-07-02T00:11:32;4.10;;;2.13;;
13085;SDS011;6609;49.882;8.664;2023-07-02T00:13:59;3.27;;;2.10;;
13085;SDS011;6609;49.882;8.664;2023-07-02T00:16:26;4.30;;;2.30;;
13085;SDS011;6609;49.882;8.664;2023-07-02T00:18:53;4.83;;;1.90;;
13085;SDS011;6609;49.882;8.664;2023-07-02T00:21:21;2.90;;;2.20;;
13085;SDS011;6609;49.882;8.664;2023-07-02T00:23:50;2.53;;;1.70;;
13085;SDS011;6609;49.882;8.664;2023-07-02T00:26:17;2.80;;;1.97;;
13085;SDS011;6609;49.882;8.664;2023-07-02T00:28:44;4.30;;;1.80;;
13085;SDS011;6609;49.882;8.664;2023-07-02T00:31:11;4.70;;;2.27;;
13085;SDS011;6609;49.882;8.664;2023-07-02T00:33:38;2.07;;;1.57;;
13085;SDS011;6609;49.882;8.664;2023-07-02T00:36:05;4.97;;;2.07;;
13085;SDS011;6609;49.882;8.664;2023-07-02T00:38:33;3.07;;;2.17;;
13085;SDS011;6609;49.882;8.664;2023-07-02T00:41:00;3.60;;;2.27;;
13085;SDS011;6609;49.882;8.664;2023-07-02T00:43:27;3.43;;;1.90;;
13085;SDS011;6609;49.882;8.664;2023-07-02T00:45:55;4.23;;;1.47;;
13085;SDS011;6609;49.882;8.664;2023-07-02T00:48:22;3.93;;;2.20;;
13085;SDS011;6609;49.882;8.664;2023-07-02T00:50:49;2.77;;;1.80;;
13085;SDS011;6609;49.882;8.664;2023-07-02T00:53:16;3.87;;;2.17;;
13085;SDS011;6609;49.882;8.664;2023-07-02T00:55:44;4.57;;;2.10;;
13085;SDS011;6609;49.882;8.664;2023-07-02T00:58:11;2.30;;;1.77;;
13085;SDS011;6609;49.882;8.664;2023-07-02T01:00:40;6.50;;;2.57;;
13085;SDS011;6609;49.882;8.664;2023-07-02T01:03:08;3.37;;;1.70;;
13085;SDS011;6609;49.882;8.664;2023-07-02T01:05:35;2.70;;;1.30;;
13085;SDS011;6609;49.882;8.664;2023-07-02T01:08:02;3.70;;;2.00;;
13085;SDS011;6609;49.882;8.664;2023-07-02T01:10:29;4.40;;;1.97;;
13085;SDS011;6609;49.882;8.664;2023-07-02T01:12:57;4.97;;;1.67;;
13085;SDS011;6609;49.882;8.664;2023-07-02T01:15:26;2.87;;;1.97;;
13085;SDS011;6609;49.882;8.664;2023-07-02T01:17:53;3.97;;;2.00;;
13085;SDS011;6609;49.882;8.664;2023-07-02T01:20:22;3.53;;;1.83;;
13085;SDS011;6609;49.882;8.664;2023-07-02T01:22:52;3.97;;;1.93;;
13085;SDS011;6609;49.882;8.664;2023-07-02T01:25:19;3.90;;;1.83;;
13085;SDS011;6609;49.882;8.664;2023-07-02T01:27:49;1.97;;;1.70;;
13085;SDS011;6609;49.882;8.664;2023-07-02T01:30:16;3.80;;;2.07;;
13085;SDS011;6609;49.882;8.664;2023-07-02T01:32:43;4.30;;;2.00;;
13085;SDS011;6609;49.882;8.664;2023-07-02T01:35:10;2.10;;;1.83;;
13085;SDS011;6609;49.882;8.664;2023-07-02T01:37:38;5.20;;;1.80;;
13085;SDS011;6609;49.882;8.664;2023-07-02T01:40:06;3.37;;;2.03;;
13085;SDS011;6609;49.882;8.664;2023-07-02T01:42:34;3.77;;;2.20;;
13085;SDS011;6609;49.882;8.664;2023-07-02T01:45:00;3.80;;;2.40;;
13085;SDS011;6609;49.882;8.664;2023-07-02T01:47:27;5.23;;;1.90;;
13085;SDS011;6609;49.882;8.664;2023-07-02T01:49:54;3.80;;;2.23;;
13085;SDS011;6609;49.882;8.664;2023-07-02T01:52:21;3.77;;;2.10;;
13085;SDS011;6609;49.882;8.664;2023-07-02T01:54:49;3.30;;;2.10;;
13085;SDS011;6609;49.882;8.664;2023-07-02T01:57:17;3.03;;;2.03;;
13085;SDS011;6609;49.882;8.664;2023-07-02T01:59:44;4.40;;;1.90;;
13085;SDS011;6609;49.882;8.664;2023-07-02T02:02:11;3.70;;;2.00;;
13085;SDS011;6609;49.882;8.664;2023-07-02T02:04:39;3.60;;;1.80;;
13085;SDS011;6609;49.882;8.664;2023-07-02T02:07:05;5.73;;;2.40;;
13085;SDS011;6609;49.882;8.664;2023-07-02T02:09:32;4.97;;;2.33;;
13085;SDS011;6609;49.882;8.664;2023-07-02T02:12:01;2.33;;;1.87;;
13085;SDS011;6609;49.882;8.664;2023-07-02T02:14:27;5.97;;;2.00;;
13085;SDS011;6609;49.882;8.664;2023-07-02T02:16:54;3.63;;;2.33;;
13085;SDS011;6609;49.882;8.664;2023-07-02T02:19:21;5.07;;;2.67;;
13085;SDS011;6609;49.882;8.664;2023-07-02T02:21:48;4.47;;;2.20;;
13085;SDS011;6609;49.882;8.664;2023-07-02T02:24:15;8.73;;;3.23;;
13085;SDS011;6609;49.882;8.664;2023-07-02T02:26:42;4.03;;;2.63;;
13085;SDS011;6609;49.882;8.664;2023-07-02T02:29:10;5.80;;;2.73;;
13085;SDS011;6609;49.882;8.664;2023-07-02T02:31:36;5.37;;;3.20;;
13085;SDS011;6609;49.882;8.664;2023-07-02T02:34:03;5.60;;;2.47;;
13085;SDS011;6609;49.882;8.664;2023-07-02T02:36:30;5.00;;;2.40;;
13085;SDS011;6609;49.882;8.664;2023-07-02T02:38:58;4.67;;;2.77;;
13085;SDS011;6609;49.882;8.664;2023-07-02T02:41:24;5.20;;;2.87;;
13085;SDS011;6609;49.882;8.664;2023-07-02T02:43:51;5.57;;;2.40;;
13085;SDS011;6609;49.882;8.664;2023-07-02T02:46:23;5.03;;;3.10;;
13085;SDS011;6609;49.882;8.664;2023-07-02T02:48:50;5.33;;;2.90;;
13085;SDS011;6609;49.882;8.664;2023-07-02T02:51:17;6.40;;;3.53;;
13085;SDS011;6609;49.882;8.664;2023-07-02T02:53:44;6.57;;;4.13;;
13085;SDS011;6609;49.882;8.664;2023-07-02T02:56:11;7.80;;;3.50;;
13085;SDS011;6609;49.882;8.664;2023-07-02T02:58:38;8.63;;;3.90;;
13085;SDS011;6609;49.882;8.664;2023-07-02T03:01:05;7.87;;;3.80;;
13085;SDS011;6609;49.882;8.664;2023-07-02T03:03:36;6.33;;;3.80;;
13085;SDS011;6609;49.882;8.664;2023-07-02T03:06:05;7.93;;;4.10;;
13085;SDS011;6609;49.882;8.664;2023-07-02T03:08:32;6.27;;;3.67;;
13085;SDS011;6609;49.882;8.664;2023-07-02T03:10:59;6.97;;;3.73;;
13085;SDS011;6609;49.882;8.664;2023-07-02T03:13:26;9.93;;;4.10;;
13085;SDS011;6609;49.882;8.664;2023-07-02T03:15:53;4.47;;;3.07;;
13085;SDS011;6609;49.882;8.664;2023-07-02T03:18:20;6.37;;;3.60;;
13085;SDS011;6609;49.882;8.664;2023-07-02T03:20:49;7.90;;;3.83;;
13085;SDS011;6609;49.882;8.664;2023-07-02T03:23:15;9.80;;;3.90;;
13085;SDS011;6609;49.882;8.664;2023-07-02T03:25:42;7.97;;;4.00;;
13085;SDS011;6609;49.882;8.664;2023-07-02T03:28:09;7.80;;;3.87;;
13085;SDS011;6609;49.882;8.664;2023-07-02T03:30:36;5.97;;;3.50;;
13085;SDS011;6609;49.882;8.664;2023-07-02T03:33:03;7.10;;;3.80;;
13085;SDS011;6609;49.882;8.664;2023-07-02T03:35:30;7.03;;;4.07;;
13085;SDS011;6609;49.882;8.664;2023-07-02T03:37:58;8.10;;;4.43;;
13085;SDS011;6609;49.882;8.664;2023-07-02T03:40:24;9.70;;;4.23;;
13085;SDS011;6609;49.882;8.664;2023-07-02T03:42:51;10.47;;;4.23;;
13085;SDS011;6609;49.882;8.664;2023-07-02T03:45:18;7.23;;;4.10;;
13085;SDS011;6609;49.882;8.664;2023-07-02T03:47:45;8.43;;;4.53;;
13085;SDS011;6609;49.882;8.664;2023-07-02T03:50:12;6.90;;;4.27;;
13085;SDS011;6609;49.882;8.664;2023-07-02T03:52:38;6.60;;;4.10;;
13085;SDS011;6609;49.882;8.664;2023-07-02T03:55:07;9.70;;;4.73;;
13085;SDS011;6609;49.882;8.664;2023-07-02T03:57:34;8.23;;;4.80;;
13085;SDS011;6609;49.882;8.664;2023-07-02T04:00:01;8.87;;;4.90;;
13085;SDS011;6609;49.882;8.664;2023-07-02T04:02:30;8.53;;;4.87;;
13085;SDS011;6609;49.882;8.664;2023-07-02T04:04:57;11.67;;;4.50;;
13085;SDS011;6609;49.882;8.664;2023-07-02T04:07:24;8.07;;;4.97;;
13085;SDS011;6609;49.882;8.664;2023-07-02T04:09:51;10.47;;;5.17;;
13085;SDS011;6609;49.882;8.664;2023-07-02T04:12:19;8.77;;;4.90;;
13085;SDS011;6609;49.882;8.664;2023-07-02T04:14:46;7.77;;;4.67;;
13085;SDS011;6609;49.882;8.664;2023-07-02T04:17:13;7.80;;;4.77;;
13085;SDS011;6609;49.882;8.664;2023-07-02T04:19:39;9.63;;;5.07;;
13085;SDS011;6609;49.882;8.664;2023-07-02T04:22:06;9.43;;;4.90;;
13085;SDS011;6609;49.882;8.664;2023-07-02T04:24:33;8.80;;;4.90;;
13085;SDS011;6609;49.882;8.664;2023-07-02T04:27:00;10.77;;;5.53;;
13085;SDS011;6609;49.882;8.664;2023-07-02T04:29:28;14.20;;;4.30;;
13085;SDS011;6609;49.882;8.664;2023-07-02T04:31:55;7.07;;;4.43;;
13085;SDS011;6609;49.882;8.664;2023-07-02T04:34:22;10.13;;;4.63;;
13085;SDS011;6609;49.882;8.664;2023-07-02T04:36:49;10.47;;;5.47;;
13085;SDS011;6609;49.882;8.664;2023-07-02T04:39:16;11.77;;;4.90;;
13085;SDS011;6609;49.882;8.664;2023-07-02T04:41:43;13.23;;;5.60;;
13085;SDS011;6609;49.882;8.664;2023-07-02T04:44:10;9.33;;;4.60;;
13085;SDS011;6609;49.882;8.664;2023-07-02T04:46:39;8.90;;;4.67;;
13085;SDS011;6609;49.882;8.664;2023-07-02T04:49:05;11.73;;;5.10;;
13085;SDS011;6609;49.882;8.664;2023-07-02T04:51:32;8.37;;;4.53;;
13085;SDS011;6609;49.882;8.664;2023-07-02T04:53:59;10.23;;;5.13;;
13085;SDS011;6609;49.882;8.664;2023-07-02T04:56:26;9.83;;;4.83;;
13085;SDS011;6609;49.882;8.664;2023-07-02T04:58:53;9.53;;;5.47;;
13085;SDS011;6609;49.882;8.664;2023-07-02T05:01:19;9.27;;;5.07;;
13085;SDS011;6609;49.882;8.664;2023-07-02T05:03:48;8.73;;;5.07;;
13085;SDS011;6609;49.882;8.664;2023-07-02T05:06:15;10.00;;;5.50;;
13085;SDS011;6609;49.882;8.664;2023-07-02T05:08:41;8.00;;;5.17;;
13085;SDS011;6609;49.882;8.664;2023-07-02T05:11:08;9.03;;;5.17;;
13085;SDS011;6609;49.882;8.664;2023-07-02T05:13:35;9.50;;;5.30;;
13085;SDS011;6609;49.882;8.664;2023-07-02T05:16:03;9.13;;;5.23;;
13085;SDS011;6609;49.882;8.664;2023-07-02T05:18:30;11.33;;;5.13;;
13085;SDS011;6609;49.882;8.664;2023-07-02T05:20:58;7.57;;;4.87;;
13085;SDS011;6609;49.882;8.664;2023-07-02T05:23:25;11.50;;;5.43;;
13085;SDS011;6609;49.882;8.664;2023-07-02T05:25:52;13.37;;;5.33;;
13085;SDS011;6609;49.882;8.664;2023-07-02T05:28:19;8.27;;;4.83;;
13085;SDS011;6609;49.882;8.664;2023-07-02T05:30:46;9.53;;;5.47;;
13085;SDS011;6609;49.882;8.664;2023-07-02T05:33:13;10.67;;;5.70;;
13085;SDS011;6609;49.882;8.664;2023-07-02T05:35:40;11.17;;;5.63;;
13085;SDS011;6609;49.882;8.664;2023-07-02T05:38:08;11.93;;;5.70;;
13085;SDS011;6609;49.882;8.664;2023-07-02T05:40:35;11.17;;;6.40;;
13085;SDS011;6609;49.882;8.664;2023-07-02T05:43:02;11.83;;;5.73;;
13085;SDS011;6609;49.882;8.664;2023-07-02T05:45:29;10.77;;;6.00;;
13085;SDS011;6609;49.882;8.664;2023-07-02T05:47:56;13.57;;;6.20;;
13085;SDS011;6609;49.882;8.664;2023-07-02T05:50:23;12.87;;;6.80;;
13085;SDS011;6609;49.882;8.664;2023-07-02T05:52:50;11.00;;;6.43;;
13085;SDS011;6609;49.882;8.664;2023-07-02T05:55:18;12.73;;;7.03;;
13085;SDS011;6609;49.882;8.664;2023-07-02T05:57:45;9.37;;;6.37;;
13085;SDS011;6609;49.882;8.664;2023-07-02T06:00:13;11.70;;;6.27;;
13085;SDS011;6609;49.882;8.664;2023-07-02T06:02:40;12.77;;;6.30;;
13085;SDS011;6609;49.882;8.664;2023-07-02T06:05:07;10.63;;;6.47;;
13085;SDS011;6609;49.882;8.664;2023-07-02T06:07:35;15.17;;;7.67;;
13085;SDS011;6609;49.882;8.664;2023-07-02T06:10:01;12.97;;;6.30;;
13085;SDS011;6609;49.882;8.664;2023-07-02T06:12:30;11.77;;;6.93;;
13085;SDS011;6609;49.882;8.664;2023-07-02T06:14:57;15.70;;;6.57;;
13085;SDS011;6609;49.882;8.664;2023-07-02T06:17:23;12.53;;;6.30;;
13085;SDS011;6609;49.882;8.664;2023-07-02T06:19:50;13.43;;;6.80;;
13085;SDS011;6609;49.882;8.664;2023-07-02T06:22:17;14.00;;;6.70;;
13085;SDS011;6609;49.882;8.664;2023-07-02T06:24:44;12.37;;;6.87;;
13085;SDS011;6609;49.882;8.664;2023-07-02T06:27:11;13.70;;;6.90;;
13085;SDS011;6609;49.882;8.664;2023-07-02T06:29:40;14.93;;;6.33;;
13085;SDS011;6609;49.882;8.664;2023-07-02T06:32:07;17.83;;;6.37;;
13085;SDS011;6609;49.882;8.664;2023-07-02T06:34:34;14.37;;;7.27;;
13085;SDS011;6609;49.882;8.664;2023-07-02T06:37:01;13.70;;;7.17;;
13085;SDS011;6609;49.882;8.664;2023-07-02T06:39:28;11.00;;;7.67;;
13085;SDS011;6609;49.882;8.664;2023-07-02T06:41:55;11.23;;;6.53;;
13085;SDS011;6609;49.882;8.664;2023-07-02T06:44:22;12.07;;;6.50;;
13085;SDS011;6609;49.882;8.664;2023-07-02T06:46:50;11.63;;;7.20;;
13085;SDS011;6609;49.882;8.664;2023-07-02T06:49:17;14.70;;;7.70;;
13085;SDS011;6609;49.882;8.664;2023-07-02T06:51:44;14.37;;;8.50;;
13085;SDS011;6609;49.882;8.664;2023-07-02T06:54:12;13.73;;;7.90;;
13085;SDS011;6609;49.882;8.664;2023-07-02T06:56:39;13.63;;;8.33;;
13085;SDS011;6609;49.882;8.664;2023-07-02T06:59:06;19.73;;;8.53;;
13085;SDS011;6609;49.882;8.664;2023-07-02T07:01:33;16.23;;;8.10;;
13085;SDS011;6609;49.882;8.664;2023-07-02T07:04:02;13.13;;;8.10;;
13085;SDS011;6609;49.882;8.664;2023-07-02T07:06:29;19.33;;;8.67;;
13085;SDS011;6609;49.882;8.664;2023-07-02T07:08:56;12.53;;;7.50;;
13085;SDS011;6609;49.882;8.664;2023-07-02T07:11:23;12.90;;;7.63;;
13085;SDS011;6609;49.882;8.664;2023-07-02T07:13:50;12.83;;;7.30;;
13085;SDS011;6609;49.882;8.664;2023-07-02T07:16:17;17.63;;;9.17;;
13085;SDS011;6609;49.882;8.664;2023-07-02T07:18:44;15.87;;;7.57;;
13085;SDS011;6609;49.882;8.664;2023-07-02T07:21:12;15.17;;;8.33;;
13085;SDS011;6609;49.882;8.664;2023-07-02T07:23:39;14.87;;;8.50;;
13085;SDS011;6609;49.882;8.664;2023-07-02T07:26:06;18.63;;;9.03;;
13085;SDS011;6609;49.882;8.664;2023-07-02T07:28:33;12.97;;;7.73;;
13085;SDS011;6609;49.882;8.664;2023-07-02T07:31:00;14.73;;;7.10;;
13085;SDS011;6609;49.882;8.664;2023-07-02T07:33:27;17.17;;;8.13;;
13085;SDS011;6609;49.882;8.664;2023-07-02T07:35:54;13.87;;;8.17;;
13085;SDS011;6609;49.882;8.664;2023-07-02T07:38:23;14.47;;;8.10;;
13085;SDS011;6609;49.882;8.664;2023-07-02T07:40:50;12.43;;;7.67;;
13085;SDS011;6609;49.882;8.664;2023-07-02T07:43:17;15.53;;;7.70;;
13085;SDS011;6609;49.882;8.664;2023-07-02T07:45:44;14.10;;;7.93;;
13085;SDS011;6609;49.882;8.664;2023-07-02T07:48:11;14.93;;;8.23;;
13085;SDS011;6609;49.882;8.664;2023-07-02T07:50:38;15.83;;;8.37;;
13085;SDS011;6609;49.882;8.664;2023-07-02T07:53:04;15.13;;;8.17;;
13085;SDS011;6609;49.882;8.664;2023-07-02T07:55:32;16.13;;;8.53;;
13085;SDS011;6609;49.882;8.664;2023-07-02T07:58:00;17.30;;;8.90;;
13085;SDS011;6609;49.882;8.664;2023-07-02T08:00:27;15.63;;;8.80;;
13085;SDS011;6609;49.882;8.664;2023-07-02T08:02:54;15.40;;;8.27;;
13085;SDS011;6609;49.882;8.664;2023-07-02T08:05:21;12.67;;;8.40;;
13085;SDS011;6609;49.882;8.664;2023-07-02T08:07:49;14.83;;;8.97;;
13085;SDS011;6609;49.882;8.664;2023-07-02T08:10:18;12.43;;;8.23;;
13085;SDS011;6609;49.882;8.664;2023-07-02T08:12:47;14.70;;;8.40;;
13085;SDS011;6609;49.882;8.664;2023-07-02T08:15:14;15.40;;;8.60;;
13085;SDS011;6609;49.882;8.664;2023-07-02T08:17:41;16.77;;;9.07;;
13085;SDS011;6609;49.882;8.664;2023-07-02T08:20:08;13.77;;;7.90;;
13085;SDS011;6609;49.882;8.664;2023-07-02T08:22:37;15.73;;;8.83;;
13085;SDS011;6609;49.882;8.664;2023-07-02T08:25:04;14.90;;;8.63;;
13085;SDS011;6609;49.882;8.664;2023-07-02T08:27:31;16.13;;;9.23;;
13085;SDS011;6609;49.882;8.664;2023-07-02T08:30:00;12.23;;;8.27;;
13085;SDS011;6609;49.882;8.664;2023-07-02T08:32:27;10.87;;;8.10;;
13085;SDS011;6609;49.882;8.664;2023-07-02T08:34:54;14.77;;;8.73;;
13085;SDS011;6609;49.882;8.664;2023-07-02T08:37:21;17.80;;;9.43;;
13085;SDS011;6609;49.882;8.664;2023-07-02T08:39:48;12.43;;;8.20;;
13085;SDS011;6609;49.882;8.664;2023-07-02T08:42:15;16.77;;;9.00;;
13085;SDS011;6609;49.882;8.664;2023-07-02T08:44:44;15.23;;;8.40;;
13085;SDS011;6609;49.882;8.664;2023-07-02T08:47:14;16.00;;;8.20;;
13085;SDS011;6609;49.882;8.664;2023-07-02T08:49:41;16.73;;;8.17;;
13085;SDS011;6609;49.882;8.664;2023-07-02T08:52:08;17.80;;;9.13;;
13085;SDS011;6609;49.882;8.664;2023-07-02T08:54:35;13.70;;;8.20;;
13085;SDS011;6609;49.882;8.664;2023-07-02T08:57:03;13.47;;;8.13;;
13085;SDS011;6609;49.882;8.664;2023-07-02T08:59:31;15.30;;;8.17;;
13085;SDS011;6609;49.882;8.664;2023-07-02T09:01:58;17.67;;;8.50;;
13085;SDS011;6609;49.882;8.664;2023-07-02T09:04:26;13.53;;;7.73;;
13085;SDS011;6609;49.882;8.664;2023-07-02T09:07:03;12.80;;;8.50;;
13085;SDS011;6609;49.882;8.664;2023-07-02T09:09:31;12.47;;;7.83;;
13085;SDS011;6609;49.882;8.664;2023-07-02T09:11:58;14.10;;;7.97;;
13085;SDS011;6609;49.882;8.664;2023-07-02T09:14:26;13.53;;;7.70;;
13085;SDS011;6609;49.882;8.664;2023-07-02T09:17:03;14.53;;;8.37;;
13085;SDS011;6609;49.882;8.664;2023-07-02T09:19:33;12.80;;;7.80;;
13085;SDS011;6609;49.882;8.664;2023-07-02T09:22:00;11.73;;;7.63;;
13085;SDS011;6609;49.882;8.664;2023-07-02T09:24:28;14.20;;;8.20;;
13085;SDS011;6609;49.882;8.664;2023-07-02T09:26:56;16.93;;;8.23;;
13085;SDS011;6609;49.882;8.664;2023-07-02T09:29:23;11.43;;;7.63;;
13085;SDS011;6609;49.882;8.664;2023-07-02T09:31:53;12.70;;;7.40;;
13085;SDS011;6609;49.882;8.664;2023-07-02T09:34:25;15.23;;;7.80;;
13085;SDS011;6609;49.882;8.664;2023-07-02T09:36:55;12.20;;;7.63;;
13085;SDS011;6609;49.882;8.664;2023-07-02T09:39:24;12.17;;;7.17;;
13085;SDS011;6609;49.882;8.664;2023-07-02T09:41:54;11.23;;;7.13;;
13085;SDS011;6609;49.882;8.664;2023-07-02T09:44:22;11.70;;;6.80;;
13085;SDS011;6609;49.882;8.664;2023-07-02T09:46:51;15.23;;;8.00;;
13085;SDS011;6609;49.882;8.664;2023-07-02T09:49:26;12.80;;;7.90;;
13085;SDS011;6609;49.882;8.664;2023-07-02T09:51:55;12.17;;;7.30;;
13085;SDS011;6609;49.882;8.664;2023-07-02T09:54:21;10.40;;;6.83;;
13085;SDS011;6609;49.882;8.664;2023-07-02T09:56:49;14.00;;;7.80;;
13085;SDS011;6609;49.882;8.664;2023-07-02T09:59:16;12.67;;;7.80;;
13085;SDS011;6609;49.882;8.664;2023-07-02T10:01:43;11.30;;;7.00;;
13085;SDS011;6609;49.882;8.664;2023-07-02T10:04:11;11.73;;;7.70;;
13085;SDS011;6609;49.882;8.664;2023-07-02T10:06:45;11.23;;;7.27;;
13085;SDS011;6609;49.882;8.664;2023-07-02T10:09:17;11.97;;;7.27;;
13085;SDS011;6609;49.882;8.664;2023-07-02T10:11:44;12.17;;;7.07;;
13085;SDS011;6609;49.882;8.664;2023-07-02T10:14:11;14.37;;;8.23;;
13085;SDS011;6609;49.882;8.664;2023-07-02T10:16:48;13.53;;;7.90;;
13085;SDS011;6609;49.882;8.664;2023-07-02T10:19:18;12.20;;;8.00;;
13085;SDS011;6609;49.882;8.664;2023-07-02T10:21:45;12.13;;;8.07;;
13085;SDS011;6609;49.882;8.664;2023-07-02T10:24:16;13.73;;;8.67;;
13085;SDS011;6609;49.882;8.664;2023-07-02T10:26:54;18.27;;;9.87;;
13085;SDS011;6609;49.882;8.664;2023-07-02T10:29:21;16.30;;;9.73;;
13085;SDS011;6609;49.882;8.664;2023-07-02T10:31:49;20.07;;;9.80;;
13085;SDS011;6609;49.882;8.664;2023-07-02T10:34:16;17.27;;;9.00;;
13085;SDS011;6609;49.882;8.664;2023-07-02T10:36:43;17.50;;;9.03;;
13085;SDS011;6609;49.882;8.664;2023-07-02T10:39:10;13.97;;;9.00;;
13085;SDS011;6609;49.882;8.664;2023-07-02T10:41:38;16.73;;;8.70;;
13085;SDS011;6609;49.882;8.664;2023-07-02T10:44:06;13.83;;;8.97;;
13085;SDS011;6609;49.882;8.664;2023-07-02T10:46:34;15.97;;;9.23;;
13085;SDS011;6609;49.882;8.664;2023-07-02T10:49:01;17.50;;;9.13;;
13085;SDS011;6609;49.882;8.664;2023-07-02T10:51:28;17.80;;;9.20;;
13085;SDS011;6609;49.882;8.664;2023-07-02T10:53:58;16.03;;;9.47;;
13085;SDS011;6609;49.882;8.664;2023-07-02T10:56:25;13.77;;;8.83;;
13085;SDS011;6609;49.882;8.664;2023-07-02T10:58:54;13.53;;;9.10;;
13085;SDS011;6609;49.882;8.664;2023-07-02T11:01:25;14.90;;;9.80;;
13085;SDS011;6609;49.882;8.664;2023-07-02T11:03:55;13.27;;;9.37;;
13085;SDS011;6609;49.882;8.664;2023-07-02T11:06:24;16.70;;;9.07;;
13085;SDS011;6609;49.882;8.664;2023-07-02T11:08:51;16.20;;;9.50;;
13085;SDS011;6609;49.882;8.664;2023-07-02T11:11:20;19.90;;;9.47;;
13085;SDS011;6609;49.882;8.664;2023-07-02T11:13:47;17.23;;;9.47;;
13085;SDS011;6609;49.882;8.664;2023-07-02T11:16:19;15.20;;;10.13;;
13085;SDS011;6609;49.882;8.664;2023-07-02T11:18:49;17.03;;;9.73;;
13085;SDS011;6609;49.882;8.664;2023-07-02T11:21:16;14.87;;;10.10;;
13085;SDS011;6609;49.882;8.664;2023-07-02T11:23:43;18.03;;;10.23;;
13085;SDS011;6609;49.882;8.664;2023-07-02T11:26:10;16.27;;;10.00;;
13085;SDS011;6609;49.882;8.664;2023-07-02T11:28:47;15.43;;;9.30;;
13085;SDS011;6609;49.882;8.664;2023-07-02T11:31:25;21.70;;;10.33;;
13085;SDS011;6609;49.882;8.664;2023-07-02T11:33:52;15.23;;;9.30;;
13085;SDS011;6609;49.882;8.664;2023-07-02T11:36:20;18.50;;;9.40;;
13085;SDS011;6609;49.882;8.664;2023-07-02T11:38:48;17.80;;;10.23;;
13085;SDS011;6609;49.882;8.664;2023-07-02T11:41:16;15.90;;;10.10;;
13085;SDS011;6609;49.882;8.664;2023-07-02T11:43:43;14.77;;;9.87;;
13085;SDS011;6609;49.882;8.664;2023-07-02T11:46:09;14.40;;;9.20;;
13085;SDS011;6609;49.882;8.664;2023-07-02T11:48:38;18.83;;;10.70;;
13085;SDS011;6609;49.882;8.664;2023-07-02T11:51:04;18.20;;;9.73;;
13085;SDS011;6609;49.882;8.664;2023-07-02T11:53:31;18.90;;;10.80;;
13085;SDS011;6609;49.882;8.664;2023-07-02T11:55:58;17.10;;;10.10;;
13085;SDS011;6609;49.882;8.664;2023-07-02T11:58:25;21.20;;;10.17;;
13085;SDS011;6609;49.882;8.664;2023-07-02T12:00:52;17.47;;;10.63;;
13085;SDS011;6609;49.882;8.664;2023-07-02T12:03:19;20.83;;;10.50;;
13085;SDS011;6609;49.882;8.664;2023-07-02T12:05:47;13.63;;;9.50;;
13085;SDS011;6609;49.882;8.664;2023-07-02T12:08:14;16.27;;;10.27;;
13085;SDS011;6609;49.882;8.664;2023-07-02T12:10:41;16.40;;;10.30;;
13085;SDS011;6609;49.882;8.664;2023-07-02T12:13:08;16.70;;;10.23;;
13085;SDS011;6609;49.882;8.664;2023-07-02T12:15:35;17.67;;;10.67;;
13085;SDS011;6609;49.882;8.664;2023-07-02T12:18:02;18.27;;;9.80;;
13085;SDS011;6609;49.882;8.664;2023-07-02T12:20:29;20.23;;;10.93;;
13085;SDS011;6609;49.882;8.664;2023-07-02T12:22:57;18.20;;;10.93;;
13085;SDS011;6609;49.882;8.664;2023-07-02T12:25:24;17.33;;;10.23;;
13085;SDS011;6609;49.882;8.664;2023-07-02T12:27:51;19.77;;;12.33;;
13085;SDS011;6609;49.882;8.664;2023-07-02T12:30:18;19.07;;;10.50;;
13085;SDS011;6609;49.882;8.664;2023-07-02T12:32:45;18.13;;;10.57;;
13085;SDS011;6609;49.882;8.664;2023-07-02T12:35:12;33.40;;;12.03;;
13085;SDS011;6609;49.882;8.664;2023-07-02T12:37:42;20.03;;;11.53;;
13085;SDS011;6609;49.882;8.664;2023-07-02T12:40:11;18.33;;;11.30;;
13085;SDS011;6609;49.882;8.664;2023-07-02T12:42:40;19.40;;;12.30;;
13085;SDS011;6609;49.882;8.664;2023-07-02T12:45:07;19.03;;;11.33;;
13085;SDS011;6609;49.882;8.664;2023-07-02T12:47:34;18.73;;;11.00;;
13085;SDS011;6609;49.882;8.664;2023-07-02T12:50:01;22.67;;;11.63;;
13085;SDS011;6609;49.882;8.664;2023-07-02T12:52:29;20.13;;;11.67;;
13085;SDS011;6609;49.882;8.664;2023-07-02T12:54:56;18.77;;;11.47;;
13085;SDS011;6609;49.882;8.664;2023-07-02T12:57:24;20.80;;;11.37;;
13085;SDS011;6609;49.882;8.664;2023-07-02T12:59:52;19.50;;;11.50;;
13085;SDS011;6609;49.882;8.664;2023-07-02T13:02:19;18.17;;;11.33;;
13085;SDS011;6609;49.882;8.664;2023-07-02T13:04:45;21.33;;;13.07;;
13085;SDS011;6609;49.882;8.664;2023-07-02T13:07:12;21.30;;;11.60;;
13085;SDS011;6609;49.882;8.664;2023-07-02T13:09:40;18.67;;;11.90;;
13085;SDS011;6609;49.882;8.664;2023-07-02T13:12:07;21.40;;;12.13;;
13085;SDS011;6609;49.882;8.664;2023-07-02T13:14:35;17.83;;;10.63;;
13085;SDS011;6609;49.882;8.664;2023-07-02T13:17:03;23.23;;;12.20;;
13085;SDS011;6609;49.882;8.664;2023-07-02T13:19:30;20.60;;;11.63;;
13085;SDS011;6609;49.882;8.664;2023-07-02T13:21:57;22.43;;;11.83;;
13085;SDS011;6609;49.882;8.664;2023-07-02T13:24:24;17.67;;;11.17;;
13085;SDS011;6609;49.882;8.664;2023-07-02T13:26:51;20.73;;;11.33;;
13085;SDS011;6609;49.882;8.664;2023-07-02T13:29:18;21.10;;;10.47;;
13085;SDS011;6609;49.882;8.664;2023-07-02T13:31:47;18.50;;;11.23;;
13085;SDS011;6609;49.882;8.664;2023-07-02T13:34:13;18.20;;;9.93;;
13085;SDS011;6609;49.882;8.664;2023-07-02T13:36:40;18.70;;;11.07;;
13085;SDS011;6609;49.882;8.664;2023-07-02T13:39:07;19.33;;;10.93;;
13085;SDS011;6609;49.882;8.664;2023-07-02T13:41:34;18.50;;;10.57;;
13085;SDS011;6609;49.882;8.664;2023-07-02T13:44:01;18.17;;;10.57;;
13085;SDS011;6609;49.882;8.664;2023-07-02T13:46:27;17.73;;;10.87;;
13085;SDS011;6609;49.882;8.664;2023-07-02T13:48:56;17.03;;;10.33;;
13085;SDS011;6609;49.882;8.664;2023-07-02T13:51:23;19.17;;;9.93;;
13085;SDS011;6609;49.882;8.664;2023-07-02T13:53:50;15.80;;;10.03;;
13085;SDS011;6609;49.882;8.664;2023-07-02T13:56:17;16.07;;;10.50;;
13085;SDS011;6609;49.882;8.664;2023-07-02T13:58:58;16.77;;;10.20;;
13085;SDS011;6609;49.882;8.664;2023-07-02T14:01:28;18.20;;;10.40;;
13085;SDS011;6609;49.882;8.664;2023-07-02T14:03:56;18.67;;;10.30;;
13085;SDS011;6609;49.882;8.664;2023-07-02T14:06:23;20.50;;;10.53;;
13085;SDS011;6609;49.882;8.664;2023-07-02T14:08:50;15.80;;;10.20;;
13085;SDS011;6609;49.882;8.664;2023-07-02T14:11:17;15.40;;;9.47;;
13085;SDS011;6609;49.882;8.664;2023-07-02T14:13:44;15.53;;;9.37;;
13085;SDS011;6609;49.882;8.664;2023-07-02T14:16:12;15.07;;;9.80;;
13085;SDS011;6609;49.882;8.664;2023-07-02T14:18:39;13.20;;;8.67;;
13085;SDS011;6609;49.882;8.664;2023-07-02T14:21:06;18.03;;;10.33;;
13085;SDS011;6609;49.882;8.664;2023-07-02T14:23:33;16.50;;;9.90;;
13085;SDS011;6609;49.882;8.664;2023-07-02T14:25:59;15.37;;;9.80;;
13085;SDS011;6609;49.882;8.664;2023-07-02T14:28:26;17.33;;;11.33;;
13085;SDS011;6609;49.882;8.664;2023-07-02T14:30:57;16.33;;;11.10;;
13085;SDS011;6609;49.882;8.664;2023-07-02T14:33:26;17.43;;;10.60;;
13085;SDS011;6609;49.882;8.664;2023-07-02T14:35:53;16.80;;;10.37;;
13085;SDS011;6609;49.882;8.664;2023-07-02T14:38:20;20.87;;;10.77;;
13085;SDS011;6609;49.882;8.664;2023-07-02T14:40:47;21.83;;;11.47;;
13085;SDS011;6609;49.882;8.664;2023-07-02T14:43:15;16.87;;;10.47;;
13085;SDS011;6609;49.882;8.664;2023-07-02T14:45:44;17.97;;;10.70;;
13085;SDS011;6609;49.882;8.664;2023-07-02T14:48:12;17.20;;;10.57;;
13085;SDS011;6609;49.882;8.664;2023-07-02T14:50:44;18.50;;;10.73;;
13085;SDS011;6609;49.882;8.664;2023-07-02T14:53:11;19.27;;;10.33;;